sensor_id;sensor_type;location;lat;lon;timestamp;P1;durP1;ratioP1;P2;durP2;ratioP2
43945;SDS011;29599;51.196;4.428;2022-11-20T00:00:55;32.10;;;19.45;;
43945;SDS011;29599;51.196;4.428;2022-11-20T00:03:20;33.63;;;19.42;;
43945;SDS011;29599;51.196;4.428;2022-11-20T00:05:46;32.75;;;19.20;;
43945;SDS011;29599;51.196;4.428;2022-11-20T00:08:12;32.03;;;19.45;;
43945;SDS011;29599;51.196;4.428;2022-11-20T00:10:38;31.38;;;19.55;;
43945;SDS011;29599;51.196;4.428;2022-11-20T00:13:04;31.52;;;19.15;;
43945;SDS011;29599;51.196;4.428;2022-11-20T00:15:30;34.00;;;19.25;;
43945;SDS011;29599;51.196;4.428;2022-11-20T00:17:56;33.75;;;19.23;;
43945;SDS011;29599;51.196;4.428;2022-11-20T00:20:22;36.17;;;19.55;;
43945;SDS011;29599;51.196;4.428;2022-11-20T00:22:47;31.77;;;19.08;;
43945;SDS011;29599;51.196;4.428;2022-11-20T00:25:14;33.72;;;20.65;;
43945;SDS011;29599;51.196;4.428;2022-11-20T00:27:39;35.30;;;20.13;;
43945;SDS011;29599;51.196;4.428;2022-11-20T00:30:05;32.70;;;20.10;;
43945;SDS011;29599;51.196;4.428;2022-11-20T00:32:31;35.90;;;20.23;;
43945;SDS011;29599;51.196;4.428;2022-11-20T00:34:57;34.17;;;19.30;;
43945;SDS011;29599;51.196;4.428;2022-11-20T00:37:22;33.53;;;20.50;;
43945;SDS011;29599;51.196;4.428;2022-11-20T00:39:48;33.33;;;19.17;;
43945;SDS011;29599;51.196;4.428;2022-11-20T00:42:14;35.13;;;20.23;;
43945;SDS011;29599;51.196;4.428;2022-11-20T00:44:39;36.60;;;21.05;;
43945;SDS011;29599;51.196;4.428;2022-11-20T00:47:05;34.50;;;19.98;;
43945;SDS011;29599;51.196;4.428;2022-11-20T00:49:30;34.92;;;20.60;;
43945;SDS011;29599;51.196;4.428;2022-11-20T00:51:56;32.55;;;19.50;;
43945;SDS011;29599;51.196;4.428;2022-11-20T00:54:21;34.90;;;20.38;;
43945;SDS011;29599;51.196;4.428;2022-11-20T00:56:47;35.40;;;20.13;;
43945;SDS011;29599;51.196;4.428;2022-11-20T00:59:13;34.40;;;19.55;;
43945;SDS011;29599;51.196;4.428;2022-11-20T01:01:38;35.83;;;21.73;;
43945;SDS011;29599;51.196;4.428;2022-11-20T01:04:04;36.17;;;20.30;;
43945;SDS011;29599;51.196;4.428;2022-11-20T01:06:31;32.75;;;19.77;;
43945;SDS011;29599;51.196;4.428;2022-11-20T01:08:59;37.20;;;19.73;;
43945;SDS011;29599;51.196;4.428;2022-11-20T01:11:28;35.85;;;20.27;;
43945;SDS011;29599;51.196;4.428;2022-11-20T01:13:56;35.40;;;20.50;;
43945;SDS011;29599;51.196;4.428;2022-11-20T01:16:23;35.45;;;20.83;;
43945;SDS011;29599;51.196;4.428;2022-11-20T01:18:51;32.00;;;20.52;;
43945;SDS011;29599;51.196;4.428;2022-11-20T01:21:19;34.28;;;20.38;;
43945;SDS011;29599;51.196;4.428;2022-11-20T01:23:47;33.38;;;19.65;;
43945;SDS011;29599;51.196;4.428;2022-11-20T01:26:15;34.08;;;20.02;;
43945;SDS011;29599;51.196;4.428;2022-11-20T01:28:42;36.03;;;20.08;;
43945;SDS011;29599;51.196;4.428;2022-11-20T01:31:12;32.92;;;20.15;;
43945;SDS011;29599;51.196;4.428;2022-11-20T01:33:40;33.42;;;20.15;;
43945;SDS011;29599;51.196;4.428;2022-11-20T01:36:06;33.35;;;20.38;;
43945;SDS011;29599;51.196;4.428;2022-11-20T01:38:32;35.38;;;20.13;;
43945;SDS011;29599;51.196;4.428;2022-11-20T01:40:58;38.08;;;21.17;;
43945;SDS011;29599;51.196;4.428;2022-11-20T01:43:24;32.45;;;19.25;;
43945;SDS011;29599;51.196;4.428;2022-11-20T01:51:24;41.72;;;19.60;;
43945;SDS011;29599;51.196;4.428;2022-11-20T01:53:52;35.72;;;19.90;;
43945;SDS011;29599;51.196;4.428;2022-11-20T01:56:20;39.88;;;20.98;;
43945;SDS011;29599;51.196;4.428;2022-11-20T01:58:48;32.83;;;19.38;;
43945;SDS011;29599;51.196;4.428;2022-11-20T02:01:18;31.00;;;18.88;;
43945;SDS011;29599;51.196;4.428;2022-11-20T02:03:46;34.38;;;19.50;;
43945;SDS011;29599;51.196;4.428;2022-11-20T02:07:12;31.80;;;19.10;;
43945;SDS011;29599;51.196;4.428;2022-11-20T02:09:08;33.72;;;20.38;;
43945;SDS011;29599;51.196;4.428;2022-11-20T02:11:35;35.20;;;20.67;;
43945;SDS011;29599;51.196;4.428;2022-11-20T02:14:00;34.40;;;20.38;;
43945;SDS011;29599;51.196;4.428;2022-11-20T02:19:26;36.80;;;20.25;;
43945;SDS011;29599;51.196;4.428;2022-11-20T02:22:05;37.80;;;20.95;;
43945;SDS011;29599;51.196;4.428;2022-11-20T02:24:37;37.67;;;20.52;;
43945;SDS011;29599;51.196;4.428;2022-11-20T02:27:14;40.08;;;20.85;;
43945;SDS011;29599;51.196;4.428;2022-11-20T02:34:51;38.25;;;20.92;;
43945;SDS011;29599;51.196;4.428;2022-11-20T02:37:17;37.45;;;21.23;;
43945;SDS011;29599;51.196;4.428;2022-11-20T02:39:44;38.53;;;21.33;;
43945;SDS011;29599;51.196;4.428;2022-11-20T02:42:12;40.40;;;23.38;;
43945;SDS011;29599;51.196;4.428;2022-11-20T02:44:38;42.53;;;22.55;;
43945;SDS011;29599;51.196;4.428;2022-11-20T02:47:03;38.45;;;22.75;;
43945;SDS011;29599;51.196;4.428;2022-11-20T02:49:29;38.13;;;21.95;;
43945;SDS011;29599;51.196;4.428;2022-11-20T02:51:55;38.10;;;22.25;;
43945;SDS011;29599;51.196;4.428;2022-11-20T02:54:20;38.80;;;21.75;;
43945;SDS011;29599;51.196;4.428;2022-11-20T02:56:46;37.55;;;22.50;;
43945;SDS011;29599;51.196;4.428;2022-11-20T02:59:11;39.22;;;22.15;;
43945;SDS011;29599;51.196;4.428;2022-11-20T03:01:37;41.47;;;22.95;;
43945;SDS011;29599;51.196;4.428;2022-11-20T03:04:03;38.45;;;21.98;;
43945;SDS011;29599;51.196;4.428;2022-11-20T03:06:29;37.55;;;22.02;;
43945;SDS011;29599;51.196;4.428;2022-11-20T03:08:55;37.15;;;21.58;;
43945;SDS011;29599;51.196;4.428;2022-11-20T03:11:20;35.40;;;21.65;;
43945;SDS011;29599;51.196;4.428;2022-11-20T03:13:46;38.33;;;22.13;;
43945;SDS011;29599;51.196;4.428;2022-11-20T03:16:12;36.42;;;21.77;;
43945;SDS011;29599;51.196;4.428;2022-11-20T03:18:40;39.10;;;21.98;;
43945;SDS011;29599;51.196;4.428;2022-11-20T03:21:07;38.85;;;21.75;;
43945;SDS011;29599;51.196;4.428;2022-11-20T03:23:34;41.65;;;22.23;;
43945;SDS011;29599;51.196;4.428;2022-11-20T03:28:48;40.03;;;21.70;;
43945;SDS011;29599;51.196;4.428;2022-11-20T03:31:16;42.97;;;23.50;;
43945;SDS011;29599;51.196;4.428;2022-11-20T03:33:44;40.22;;;23.48;;
43945;SDS011;29599;51.196;4.428;2022-11-20T03:36:11;44.90;;;23.88;;
43945;SDS011;29599;51.196;4.428;2022-11-20T03:38:38;44.15;;;23.77;;
43945;SDS011;29599;51.196;4.428;2022-11-20T03:41:05;43.20;;;23.20;;
43945;SDS011;29599;51.196;4.428;2022-11-20T03:43:33;44.78;;;23.58;;
43945;SDS011;29599;51.196;4.428;2022-11-20T03:45:59;41.08;;;22.23;;
43945;SDS011;29599;51.196;4.428;2022-11-20T03:48:25;49.90;;;24.15;;
43945;SDS011;29599;51.196;4.428;2022-11-20T03:50:52;47.60;;;24.30;;
43945;SDS011;29599;51.196;4.428;2022-11-20T03:53:18;48.45;;;26.52;;
43945;SDS011;29599;51.196;4.428;2022-11-20T03:55:45;45.05;;;24.55;;
43945;SDS011;29599;51.196;4.428;2022-11-20T03:58:15;53.60;;;27.25;;
43945;SDS011;29599;51.196;4.428;2022-11-20T04:00:41;57.67;;;26.20;;
43945;SDS011;29599;51.196;4.428;2022-11-20T04:03:06;53.20;;;26.70;;
43945;SDS011;29599;51.196;4.428;2022-11-20T04:05:32;60.50;;;30.08;;
43945;SDS011;29599;51.196;4.428;2022-11-20T04:07:59;62.30;;;30.15;;
43945;SDS011;29599;51.196;4.428;2022-11-20T04:10:25;63.92;;;31.33;;
43945;SDS011;29599;51.196;4.428;2022-11-20T04:12:50;58.03;;;30.10;;
43945;SDS011;29599;51.196;4.428;2022-11-20T04:15:16;57.28;;;29.52;;
43945;SDS011;29599;51.196;4.428;2022-11-20T04:17:42;61.08;;;29.52;;
43945;SDS011;29599;51.196;4.428;2022-11-20T04:20:08;62.53;;;30.80;;
43945;SDS011;29599;51.196;4.428;2022-11-20T04:22:33;65.50;;;31.27;;
43945;SDS011;29599;51.196;4.428;2022-11-20T04:24:59;59.33;;;30.38;;
43945;SDS011;29599;51.196;4.428;2022-11-20T04:27:25;63.15;;;32.60;;
43945;SDS011;29599;51.196;4.428;2022-11-20T04:29:50;61.00;;;32.00;;
43945;SDS011;29599;51.196;4.428;2022-11-20T04:32:16;66.20;;;32.22;;
43945;SDS011;29599;51.196;4.428;2022-11-20T04:34:41;62.55;;;31.10;;
43945;SDS011;29599;51.196;4.428;2022-11-20T04:37:07;66.80;;;33.47;;
43945;SDS011;29599;51.196;4.428;2022-11-20T04:39:32;62.58;;;30.80;;
43945;SDS011;29599;51.196;4.428;2022-11-20T04:41:58;66.47;;;31.75;;
43945;SDS011;29599;51.196;4.428;2022-11-20T04:44:42;66.45;;;32.25;;
43945;SDS011;29599;51.196;4.428;2022-11-20T04:47:07;61.78;;;31.30;;
43945;SDS011;29599;51.196;4.428;2022-11-20T04:49:33;64.55;;;31.27;;
43945;SDS011;29599;51.196;4.428;2022-11-20T04:51:59;65.72;;;32.33;;
43945;SDS011;29599;51.196;4.428;2022-11-20T04:54:24;59.88;;;31.02;;
43945;SDS011;29599;51.196;4.428;2022-11-20T04:56:50;64.40;;;31.20;;
43945;SDS011;29599;51.196;4.428;2022-11-20T04:59:16;61.55;;;30.63;;
43945;SDS011;29599;51.196;4.428;2022-11-20T05:01:42;62.95;;;30.98;;
43945;SDS011;29599;51.196;4.428;2022-11-20T05:04:07;62.50;;;31.25;;
43945;SDS011;29599;51.196;4.428;2022-11-20T05:06:33;62.55;;;29.95;;
43945;SDS011;29599;51.196;4.428;2022-11-20T05:08:59;65.97;;;31.95;;
43945;SDS011;29599;51.196;4.428;2022-11-20T05:11:25;61.83;;;31.33;;
43945;SDS011;29599;51.196;4.428;2022-11-20T05:13:53;62.05;;;31.15;;
43945;SDS011;29599;51.196;4.428;2022-11-20T05:16:20;62.00;;;30.92;;
43945;SDS011;29599;51.196;4.428;2022-11-20T05:18:48;61.25;;;32.08;;
43945;SDS011;29599;51.196;4.428;2022-11-20T05:21:14;65.63;;;31.52;;
43945;SDS011;29599;51.196;4.428;2022-11-20T05:23:41;66.15;;;32.63;;
43945;SDS011;29599;51.196;4.428;2022-11-20T05:26:08;62.63;;;31.50;;
43945;SDS011;29599;51.196;4.428;2022-11-20T05:28:41;59.38;;;31.02;;
43945;SDS011;29599;51.196;4.428;2022-11-20T05:31:07;63.60;;;30.13;;
43945;SDS011;29599;51.196;4.428;2022-11-20T05:33:34;63.53;;;31.17;;
43945;SDS011;29599;51.196;4.428;2022-11-20T05:36:01;58.65;;;29.50;;
43945;SDS011;29599;51.196;4.428;2022-11-20T05:38:28;63.25;;;31.55;;
43945;SDS011;29599;51.196;4.428;2022-11-20T05:40:54;60.45;;;31.08;;
43945;SDS011;29599;51.196;4.428;2022-11-20T05:43:19;65.05;;;30.70;;
43945;SDS011;29599;51.196;4.428;2022-11-20T05:45:52;60.60;;;30.73;;
43945;SDS011;29599;51.196;4.428;2022-11-20T05:48:18;64.03;;;31.35;;
43945;SDS011;29599;51.196;4.428;2022-11-20T05:50:44;63.80;;;32.45;;
43945;SDS011;29599;51.196;4.428;2022-11-20T05:53:10;66.28;;;30.98;;
43945;SDS011;29599;51.196;4.428;2022-11-20T05:55:35;60.20;;;30.30;;
43945;SDS011;29599;51.196;4.428;2022-11-20T05:58:01;64.28;;;32.28;;
43945;SDS011;29599;51.196;4.428;2022-11-20T06:00:26;63.28;;;33.20;;
43945;SDS011;29599;51.196;4.428;2022-11-20T06:02:52;63.45;;;31.17;;
43945;SDS011;29599;51.196;4.428;2022-11-20T06:05:17;61.03;;;31.25;;
43945;SDS011;29599;51.196;4.428;2022-11-20T06:07:43;60.78;;;30.85;;
43945;SDS011;29599;51.196;4.428;2022-11-20T06:10:09;64.25;;;32.55;;
43945;SDS011;29599;51.196;4.428;2022-11-20T06:12:35;59.83;;;31.90;;
43945;SDS011;29599;51.196;4.428;2022-11-20T06:15:00;61.15;;;31.98;;
43945;SDS011;29599;51.196;4.428;2022-11-20T06:17:26;61.55;;;31.10;;
43945;SDS011;29599;51.196;4.428;2022-11-20T06:19:51;65.57;;;31.63;;
43945;SDS011;29599;51.196;4.428;2022-11-20T06:22:17;64.40;;;31.98;;
43945;SDS011;29599;51.196;4.428;2022-11-20T06:24:42;61.05;;;30.75;;
43945;SDS011;29599;51.196;4.428;2022-11-20T06:27:08;66.95;;;32.03;;
43945;SDS011;29599;51.196;4.428;2022-11-20T06:29:33;60.28;;;32.05;;
43945;SDS011;29599;51.196;4.428;2022-11-20T06:31:59;60.80;;;30.50;;
43945;SDS011;29599;51.196;4.428;2022-11-20T06:34:26;64.97;;;32.70;;
43945;SDS011;29599;51.196;4.428;2022-11-20T06:36:51;61.60;;;31.05;;
43945;SDS011;29599;51.196;4.428;2022-11-20T06:39:17;69.53;;;31.98;;
43945;SDS011;29599;51.196;4.428;2022-11-20T06:41:42;68.57;;;32.38;;
43945;SDS011;29599;51.196;4.428;2022-11-20T06:44:08;63.70;;;32.42;;
43945;SDS011;29599;51.196;4.428;2022-11-20T06:46:34;60.75;;;31.02;;
43945;SDS011;29599;51.196;4.428;2022-11-20T06:48:59;60.25;;;30.27;;
43945;SDS011;29599;51.196;4.428;2022-11-20T06:51:25;63.90;;;31.92;;
43945;SDS011;29599;51.196;4.428;2022-11-20T06:53:50;65.78;;;33.33;;
43945;SDS011;29599;51.196;4.428;2022-11-20T06:56:16;69.13;;;33.92;;
43945;SDS011;29599;51.196;4.428;2022-11-20T06:58:41;61.80;;;30.77;;
43945;SDS011;29599;51.196;4.428;2022-11-20T07:01:09;64.75;;;32.78;;
43945;SDS011;29599;51.196;4.428;2022-11-20T07:03:36;60.38;;;31.27;;
43945;SDS011;29599;51.196;4.428;2022-11-20T07:06:02;66.35;;;32.22;;
43945;SDS011;29599;51.196;4.428;2022-11-20T07:08:28;62.90;;;31.73;;
43945;SDS011;29599;51.196;4.428;2022-11-20T07:11:01;63.72;;;31.95;;
43945;SDS011;29599;51.196;4.428;2022-11-20T07:13:28;64.15;;;31.20;;
43945;SDS011;29599;51.196;4.428;2022-11-20T07:15:55;65.60;;;32.45;;
43945;SDS011;29599;51.196;4.428;2022-11-20T07:18:25;60.90;;;30.17;;
43945;SDS011;29599;51.196;4.428;2022-11-20T07:20:50;64.75;;;30.67;;
43945;SDS011;29599;51.196;4.428;2022-11-20T07:23:16;60.45;;;31.58;;
43945;SDS011;29599;51.196;4.428;2022-11-20T07:25:41;63.30;;;31.42;;
43945;SDS011;29599;51.196;4.428;2022-11-20T07:28:07;60.95;;;31.13;;
43945;SDS011;29599;51.196;4.428;2022-11-20T07:30:33;65.05;;;31.60;;
43945;SDS011;29599;51.196;4.428;2022-11-20T07:32:58;59.83;;;30.15;;
43945;SDS011;29599;51.196;4.428;2022-11-20T07:35:24;65.00;;;31.45;;
43945;SDS011;29599;51.196;4.428;2022-11-20T07:37:50;63.60;;;32.58;;
43945;SDS011;29599;51.196;4.428;2022-11-20T07:40:15;57.97;;;29.88;;
43945;SDS011;29599;51.196;4.428;2022-11-20T07:42:52;61.47;;;31.05;;
43945;SDS011;29599;51.196;4.428;2022-11-20T07:45:19;60.33;;;30.75;;
43945;SDS011;29599;51.196;4.428;2022-11-20T07:47:46;65.38;;;32.20;;
43945;SDS011;29599;51.196;4.428;2022-11-20T07:50:12;60.67;;;31.02;;
43945;SDS011;29599;51.196;4.428;2022-11-20T07:52:38;61.83;;;30.33;;
43945;SDS011;29599;51.196;4.428;2022-11-20T07:55:05;63.65;;;30.38;;
43945;SDS011;29599;51.196;4.428;2022-11-20T07:57:31;61.00;;;30.45;;
43945;SDS011;29599;51.196;4.428;2022-11-20T07:59:57;65.43;;;32.45;;
43945;SDS011;29599;51.196;4.428;2022-11-20T08:02:22;68.38;;;30.98;;
43945;SDS011;29599;51.196;4.428;2022-11-20T08:04:48;60.72;;;29.92;;
43945;SDS011;29599;51.196;4.428;2022-11-20T08:07:14;60.10;;;30.67;;
43945;SDS011;29599;51.196;4.428;2022-11-20T08:09:39;58.88;;;29.55;;
43945;SDS011;29599;51.196;4.428;2022-11-20T08:12:05;57.50;;;28.98;;
43945;SDS011;29599;51.196;4.428;2022-11-20T08:14:49;66.20;;;31.08;;
43945;SDS011;29599;51.196;4.428;2022-11-20T08:17:15;61.92;;;31.20;;
43945;SDS011;29599;51.196;4.428;2022-11-20T08:19:40;59.13;;;31.23;;
43945;SDS011;29599;51.196;4.428;2022-11-20T08:22:06;59.28;;;30.98;;
43945;SDS011;29599;51.196;4.428;2022-11-20T08:24:32;60.40;;;30.67;;
43945;SDS011;29599;51.196;4.428;2022-11-20T08:26:58;64.47;;;32.25;;
43945;SDS011;29599;51.196;4.428;2022-11-20T08:29:24;61.70;;;30.77;;
43945;SDS011;29599;51.196;4.428;2022-11-20T08:31:51;62.95;;;31.10;;
43945;SDS011;29599;51.196;4.428;2022-11-20T08:34:16;61.10;;;29.58;;
43945;SDS011;29599;51.196;4.428;2022-11-20T08:36:42;65.13;;;30.13;;
43945;SDS011;29599;51.196;4.428;2022-11-20T08:39:07;58.63;;;29.00;;
43945;SDS011;29599;51.196;4.428;2022-11-20T08:41:36;62.92;;;30.95;;
43945;SDS011;29599;51.196;4.428;2022-11-20T08:44:02;62.53;;;29.40;;
43945;SDS011;29599;51.196;4.428;2022-11-20T08:46:33;58.08;;;28.42;;
43945;SDS011;29599;51.196;4.428;2022-11-20T08:49:02;60.70;;;29.77;;
43945;SDS011;29599;51.196;4.428;2022-11-20T08:51:32;60.63;;;29.00;;
43945;SDS011;29599;51.196;4.428;2022-11-20T08:53:58;58.45;;;29.75;;
43945;SDS011;29599;51.196;4.428;2022-11-20T08:56:23;60.38;;;28.95;;
43945;SDS011;29599;51.196;4.428;2022-11-20T08:58:49;63.17;;;31.20;;
43945;SDS011;29599;51.196;4.428;2022-11-20T09:01:17;59.10;;;30.13;;
43945;SDS011;29599;51.196;4.428;2022-11-20T09:03:43;60.13;;;29.58;;
43945;SDS011;29599;51.196;4.428;2022-11-20T09:06:08;58.00;;;29.85;;
43945;SDS011;29599;51.196;4.428;2022-11-20T09:08:34;64.63;;;30.02;;
43945;SDS011;29599;51.196;4.428;2022-11-20T09:11:00;57.35;;;28.60;;
43945;SDS011;29599;51.196;4.428;2022-11-20T09:13:27;61.90;;;30.25;;
43945;SDS011;29599;51.196;4.428;2022-11-20T09:15:57;60.95;;;29.65;;
43945;SDS011;29599;51.196;4.428;2022-11-20T09:18:26;67.70;;;30.92;;
43945;SDS011;29599;51.196;4.428;2022-11-20T09:20:56;68.57;;;30.20;;
43945;SDS011;29599;51.196;4.428;2022-11-20T09:23:22;66.90;;;30.65;;
43945;SDS011;29599;51.196;4.428;2022-11-20T09:25:48;63.05;;;31.27;;
43945;SDS011;29599;51.196;4.428;2022-11-20T09:28:14;64.15;;;30.20;;
43945;SDS011;29599;51.196;4.428;2022-11-20T09:30:39;65.13;;;30.70;;
43945;SDS011;29599;51.196;4.428;2022-11-20T09:33:05;62.13;;;29.63;;
43945;SDS011;29599;51.196;4.428;2022-11-20T09:35:31;61.20;;;29.98;;
43945;SDS011;29599;51.196;4.428;2022-11-20T09:37:57;63.90;;;30.30;;
43945;SDS011;29599;51.196;4.428;2022-11-20T09:40:24;73.93;;;31.90;;
43945;SDS011;29599;51.196;4.428;2022-11-20T09:43:03;68.40;;;31.55;;
43945;SDS011;29599;51.196;4.428;2022-11-20T09:45:38;63.78;;;30.15;;
43945;SDS011;29599;51.196;4.428;2022-11-20T09:48:29;70.18;;;31.27;;
43945;SDS011;29599;51.196;4.428;2022-11-20T09:56:50;66.80;;;30.25;;
43945;SDS011;29599;51.196;4.428;2022-11-20T09:59:29;72.57;;;30.80;;
43945;SDS011;29599;51.196;4.428;2022-11-20T10:02:08;72.53;;;31.55;;
43945;SDS011;29599;51.196;4.428;2022-11-20T10:04:47;70.13;;;31.23;;
43945;SDS011;29599;51.196;4.428;2022-11-20T10:07:29;73.80;;;31.33;;
43945;SDS011;29599;51.196;4.428;2022-11-20T10:10:01;74.32;;;32.20;;
43945;SDS011;29599;51.196;4.428;2022-11-20T10:15:16;74.95;;;30.58;;
43945;SDS011;29599;51.196;4.428;2022-11-20T10:20:30;72.10;;;31.58;;
43945;SDS011;29599;51.196;4.428;2022-11-20T10:26:01;76.22;;;31.10;;
43945;SDS011;29599;51.196;4.428;2022-11-20T10:31:28;95.47;;;35.22;;
43945;SDS011;29599;51.196;4.428;2022-11-20T10:34:00;82.18;;;33.85;;
43945;SDS011;29599;51.196;4.428;2022-11-20T10:36:37;79.32;;;31.77;;
43945;SDS011;29599;51.196;4.428;2022-11-20T10:39:11;85.90;;;34.10;;
43945;SDS011;29599;51.196;4.428;2022-11-20T10:41:43;91.10;;;35.08;;
43945;SDS011;29599;51.196;4.428;2022-11-20T10:44:19;87.88;;;35.33;;
43945;SDS011;29599;51.196;4.428;2022-11-20T10:47:05;84.60;;;34.28;;
43945;SDS011;29599;51.196;4.428;2022-11-20T10:49:39;96.63;;;34.80;;
43945;SDS011;29599;51.196;4.428;2022-11-20T10:52:19;86.97;;;35.00;;
43945;SDS011;29599;51.196;4.428;2022-11-20T10:55:03;91.72;;;35.88;;
43945;SDS011;29599;51.196;4.428;2022-11-20T11:00:50;87.90;;;35.45;;
43945;SDS011;29599;51.196;4.428;2022-11-20T11:06:14;89.00;;;34.45;;
43945;SDS011;29599;51.196;4.428;2022-11-20T11:09:02;94.07;;;35.50;;
43945;SDS011;29599;51.196;4.428;2022-11-20T11:11:42;87.97;;;34.83;;
43945;SDS011;29599;51.196;4.428;2022-11-20T11:14:08;93.93;;;35.45;;
43945;SDS011;29599;51.196;4.428;2022-11-20T11:16:54;95.18;;;35.85;;
43945;SDS011;29599;51.196;4.428;2022-11-20T11:19:22;87.57;;;32.38;;
43945;SDS011;29599;51.196;4.428;2022-11-20T11:21:49;92.55;;;36.72;;
43945;SDS011;29599;51.196;4.428;2022-11-20T11:24:21;82.80;;;33.40;;
43945;SDS011;29599;51.196;4.428;2022-11-20T11:27:04;89.05;;;34.53;;
43945;SDS011;29599;51.196;4.428;2022-11-20T11:29:37;87.75;;;34.03;;
43945;SDS011;29599;51.196;4.428;2022-11-20T11:32:08;85.85;;;34.85;;
43945;SDS011;29599;51.196;4.428;2022-11-20T11:34:38;84.32;;;33.65;;
43945;SDS011;29599;51.196;4.428;2022-11-20T11:37:04;81.88;;;31.90;;
43945;SDS011;29599;51.196;4.428;2022-11-20T11:39:35;83.60;;;33.30;;
43945;SDS011;29599;51.196;4.428;2022-11-20T11:42:07;80.15;;;32.33;;
43945;SDS011;29599;51.196;4.428;2022-11-20T11:44:43;86.32;;;34.20;;
43945;SDS011;29599;51.196;4.428;2022-11-20T11:47:31;75.35;;;32.00;;
43945;SDS011;29599;51.196;4.428;2022-11-20T11:52:39;84.30;;;32.90;;
43945;SDS011;29599;51.196;4.428;2022-11-20T11:55:12;74.93;;;30.80;;
43945;SDS011;29599;51.196;4.428;2022-11-20T11:57:57;79.03;;;31.55;;
43945;SDS011;29599;51.196;4.428;2022-11-20T12:00:56;72.47;;;29.88;;
43945;SDS011;29599;51.196;4.428;2022-11-20T12:03:36;76.85;;;30.90;;
43945;SDS011;29599;51.196;4.428;2022-11-20T12:06:11;67.05;;;28.83;;
43945;SDS011;29599;51.196;4.428;2022-11-20T12:14:34;68.93;;;26.75;;
43945;SDS011;29599;51.196;4.428;2022-11-20T12:17:02;66.65;;;27.30;;
43945;SDS011;29599;51.196;4.428;2022-11-20T12:19:33;62.03;;;27.63;;
43945;SDS011;29599;51.196;4.428;2022-11-20T12:25:26;59.47;;;26.05;;
43945;SDS011;29599;51.196;4.428;2022-11-20T12:30:54;66.63;;;25.45;;
43945;SDS011;29599;51.196;4.428;2022-11-20T12:39:40;60.45;;;25.48;;
43945;SDS011;29599;51.196;4.428;2022-11-20T12:53:04;33.50;;;14.55;;
43945;SDS011;29599;51.196;4.428;2022-11-20T12:55:42;34.08;;;14.25;;
43945;SDS011;29599;51.196;4.428;2022-11-20T13:01:13;19.90;;;8.07;;
43945;SDS011;29599;51.196;4.428;2022-11-20T13:04:06;12.77;;;6.05;;
43945;SDS011;29599;51.196;4.428;2022-11-20T13:06:48;14.45;;;5.40;;
43945;SDS011;29599;51.196;4.428;2022-11-20T13:09:16;18.33;;;5.35;;
43945;SDS011;29599;51.196;4.428;2022-11-20T13:11:48;16.48;;;5.20;;
43945;SDS011;29599;51.196;4.428;2022-11-20T13:17:37;12.85;;;4.75;;
43945;SDS011;29599;51.196;4.428;2022-11-20T13:20:12;11.88;;;4.95;;
43945;SDS011;29599;51.196;4.428;2022-11-20T13:25:22;19.50;;;5.78;;
43945;SDS011;29599;51.196;4.428;2022-11-20T13:27:49;14.63;;;5.85;;
43945;SDS011;29599;51.196;4.428;2022-11-20T13:30:16;20.27;;;5.60;;
43945;SDS011;29599;51.196;4.428;2022-11-20T13:32:50;19.17;;;5.85;;
43945;SDS011;29599;51.196;4.428;2022-11-20T13:35:29;15.07;;;5.32;;
43945;SDS011;29599;51.196;4.428;2022-11-20T13:40:49;9.83;;;5.10;;
43945;SDS011;29599;51.196;4.428;2022-11-20T13:43:49;12.38;;;4.97;;
43945;SDS011;29599;51.196;4.428;2022-11-20T13:46:09;15.40;;;5.63;;
43945;SDS011;29599;51.196;4.428;2022-11-20T13:48:39;13.60;;;5.05;;
43945;SDS011;29599;51.196;4.428;2022-11-20T13:59:58;12.25;;;5.22;;
43945;SDS011;29599;51.196;4.428;2022-11-20T14:02:35;15.20;;;4.90;;
43945;SDS011;29599;51.196;4.428;2022-11-20T14:05:01;14.73;;;5.40;;
43945;SDS011;29599;51.196;4.428;2022-11-20T14:07:37;10.55;;;4.95;;
43945;SDS011;29599;51.196;4.428;2022-11-20T14:10:18;15.52;;;5.15;;
43945;SDS011;29599;51.196;4.428;2022-11-20T14:12:49;11.13;;;4.47;;
43945;SDS011;29599;51.196;4.428;2022-11-20T14:15:31;14.23;;;5.20;;
43945;SDS011;29599;51.196;4.428;2022-11-20T14:17:58;13.98;;;5.22;;
43945;SDS011;29599;51.196;4.428;2022-11-20T14:20:28;10.27;;;5.05;;
43945;SDS011;29599;51.196;4.428;2022-11-20T14:22:56;10.65;;;5.07;;
43945;SDS011;29599;51.196;4.428;2022-11-20T14:25:25;14.90;;;5.00;;
43945;SDS011;29599;51.196;4.428;2022-11-20T14:27:57;13.65;;;5.10;;
43945;SDS011;29599;51.196;4.428;2022-11-20T14:30:25;11.80;;;4.93;;
43945;SDS011;29599;51.196;4.428;2022-11-20T14:33:09;10.52;;;4.13;;
43945;SDS011;29599;51.196;4.428;2022-11-20T14:35:37;15.23;;;4.65;;
43945;SDS011;29599;51.196;4.428;2022-11-20T14:38:10;8.38;;;4.03;;
43945;SDS011;29599;51.196;4.428;2022-11-20T14:40:39;9.50;;;4.03;;
43945;SDS011;29599;51.196;4.428;2022-11-20T14:43:18;10.15;;;3.60;;
43945;SDS011;29599;51.196;4.428;2022-11-20T14:46:05;7.82;;;4.00;;
43945;SDS011;29599;51.196;4.428;2022-11-20T14:48:43;7.55;;;2.95;;
43945;SDS011;29599;51.196;4.428;2022-11-20T14:51:10;4.57;;;3.03;;
43945;SDS011;29599;51.196;4.428;2022-11-20T14:53:36;9.77;;;4.10;;
43945;SDS011;29599;51.196;4.428;2022-11-20T14:56:02;5.82;;;2.78;;
43945;SDS011;29599;51.196;4.428;2022-11-20T14:58:32;7.07;;;3.28;;
43945;SDS011;29599;51.196;4.428;2022-11-20T15:00:59;6.60;;;2.83;;
43945;SDS011;29599;51.196;4.428;2022-11-20T15:03:33;6.43;;;2.85;;
43945;SDS011;29599;51.196;4.428;2022-11-20T15:06:03;3.97;;;3.00;;
43945;SDS011;29599;51.196;4.428;2022-11-20T15:08:30;4.28;;;2.75;;
43945;SDS011;29599;51.196;4.428;2022-11-20T15:10:55;8.50;;;2.85;;
43945;SDS011;29599;51.196;4.428;2022-11-20T15:13:29;4.88;;;3.08;;
43945;SDS011;29599;51.196;4.428;2022-11-20T15:15:58;11.05;;;4.05;;
43945;SDS011;29599;51.196;4.428;2022-11-20T15:18:29;3.85;;;3.08;;
43945;SDS011;29599;51.196;4.428;2022-11-20T15:21:02;4.53;;;3.33;;
43945;SDS011;29599;51.196;4.428;2022-11-20T15:23:36;5.55;;;3.55;;
43945;SDS011;29599;51.196;4.428;2022-11-20T15:26:01;4.57;;;3.03;;
43945;SDS011;29599;51.196;4.428;2022-11-20T15:30:59;5.80;;;3.67;;
43945;SDS011;29599;51.196;4.428;2022-11-20T15:33:27;6.97;;;3.35;;
43945;SDS011;29599;51.196;4.428;2022-11-20T15:35:52;6.90;;;3.20;;
43945;SDS011;29599;51.196;4.428;2022-11-20T15:38:18;9.90;;;3.35;;
43945;SDS011;29599;51.196;4.428;2022-11-20T15:40:44;8.20;;;3.60;;
43945;SDS011;29599;51.196;4.428;2022-11-20T15:43:09;10.50;;;6.10;;
43945;SDS011;29599;51.196;4.428;2022-11-20T15:45:39;24.90;;;14.48;;
43945;SDS011;29599;51.196;4.428;2022-11-20T15:48:07;15.40;;;9.77;;
43945;SDS011;29599;51.196;4.428;2022-11-20T15:53:25;21.42;;;12.65;;
43945;SDS011;29599;51.196;4.428;2022-11-20T15:55:51;14.38;;;7.57;;
43945;SDS011;29599;51.196;4.428;2022-11-20T15:58:17;11.15;;;6.15;;
43945;SDS011;29599;51.196;4.428;2022-11-20T16:00:43;12.70;;;6.35;;
43945;SDS011;29599;51.196;4.428;2022-11-20T16:03:13;9.55;;;5.63;;
43945;SDS011;29599;51.196;4.428;2022-11-20T16:05:39;14.40;;;6.65;;
43945;SDS011;29599;51.196;4.428;2022-11-20T16:08:05;10.77;;;5.47;;
43945;SDS011;29599;51.196;4.428;2022-11-20T16:10:31;11.40;;;5.13;;
43945;SDS011;29599;51.196;4.428;2022-11-20T16:12:57;23.70;;;11.90;;